createdAt,value
2022-09-23T00:01:04.770Z,4.77
2022-09-23T00:03:33.404Z,2.13
2022-09-23T00:06:06.727Z,3.43
2022-09-23T00:08:34.860Z,2.40
2022-09-23T00:11:14.974Z,3.53
2022-09-23T00:13:43.730Z,3.77
2022-09-23T00:16:13.808Z,3.87
2022-09-23T00:18:41.901Z,2.57
2022-09-23T00:21:11.630Z,3.40
2022-09-23T00:23:40.626Z,1.80
2022-09-23T00:26:09.756Z,2.87
2022-09-23T00:28:36.931Z,3.70
2022-09-23T00:31:09.126Z,5.97
2022-09-23T00:33:36.460Z,3.53
2022-09-23T00:36:05.653Z,5.50
2022-09-23T00:38:34.034Z,4.03
2022-09-23T00:41:01.314Z,3.77
2022-09-23T00:43:41.645Z,2.23
2022-09-23T00:46:13.593Z,3.27
2022-09-23T00:48:42.951Z,3.10
2022-09-23T00:51:16.801Z,3.10
2022-09-23T00:53:46.600Z,8.27
2022-09-23T00:56:15.408Z,3.07
2022-09-23T00:58:44.700Z,2.20
2022-09-23T01:01:17.266Z,2.10
2022-09-23T01:03:46.568Z,2.60
2022-09-23T01:06:16.101Z,2.20
2022-09-23T01:08:46.035Z,2.20
2022-09-23T01:11:37.393Z,2.50
2022-09-23T01:14:17.023Z,2.30
2022-09-23T01:17:03.408Z,4.10
2022-09-23T01:19:43.576Z,2.80
2022-09-23T01:22:16.957Z,2.60
2022-09-23T01:25:25.373Z,7.00
2022-09-23T01:28:10.849Z,3.73
2022-09-23T01:30:49.753Z,3.33
2022-09-23T01:33:19.685Z,3.20
2022-09-23T01:36:05.137Z,3.90
2022-09-23T01:38:40.698Z,2.50
2022-09-23T01:41:18.528Z,3.07
2022-09-23T01:44:10.701Z,4.60
2022-09-23T01:46:55.308Z,2.20
2022-09-23T01:49:35.467Z,3.93
2022-09-23T01:52:10.173Z,3.13
2022-09-23T01:54:47.898Z,2.47
2022-09-23T02:00:40.707Z,2.50
2022-09-23T02:03:27.431Z,3.30
2022-09-23T02:06:05.717Z,2.90
2022-09-23T02:08:44.043Z,3.80
2022-09-23T02:11:16.724Z,3.07
2022-09-23T02:13:52.840Z,3.97
2022-09-23T02:16:26.151Z,2.70
2022-09-23T02:19:05.157Z,2.37
2022-09-23T02:21:35.311Z,2.43
2022-09-23T02:24:05.052Z,2.53
2022-09-23T02:26:37.296Z,7.17
2022-09-23T02:29:16.774Z,3.13
2022-09-23T02:31:46.453Z,1.90
2022-09-23T02:34:17.147Z,2.87
2022-09-23T02:36:50.919Z,3.37
2022-09-23T02:39:19.736Z,5.30
2022-09-23T02:41:52.474Z,3.57
2022-09-23T02:44:20.595Z,3.10
2022-09-23T02:46:50.288Z,2.50
2022-09-23T02:49:20.724Z,2.77
2022-09-23T02:51:47.950Z,2.50
2022-09-23T02:54:17.491Z,3.10
2022-09-23T02:56:46.996Z,4.13
2022-09-23T02:59:17.283Z,2.40
2022-09-23T03:02:04.731Z,6.03
2022-09-23T03:04:35.070Z,5.63
2022-09-23T03:07:06.356Z,4.47
2022-09-23T03:09:43.867Z,2.50
2022-09-23T03:12:23.130Z,2.30
2022-09-23T03:14:55.105Z,2.20
2022-09-23T03:17:48.853Z,2.93
2022-09-23T03:20:27.812Z,4.17
2022-09-23T03:23:00.876Z,2.63
2022-09-23T03:25:31.489Z,3.33
2022-09-23T03:28:00.315Z,4.07
2022-09-23T03:30:27.872Z,3.63
2022-09-23T03:32:55.942Z,2.67
2022-09-23T03:35:25.403Z,2.30
2022-09-23T03:37:55.625Z,2.43
2022-09-23T03:40:30.954Z,2.20
2022-09-23T03:43:01.178Z,6.57
2022-09-23T03:45:31.606Z,4.37
2022-09-23T03:48:00.725Z,3.80
2022-09-23T03:50:28.195Z,2.40
2022-09-23T03:52:55.875Z,3.60
2022-09-23T03:55:23.124Z,2.80
2022-09-23T03:57:50.377Z,4.33
2022-09-23T04:00:17.714Z,2.67
2022-09-23T04:02:45.544Z,2.70
2022-09-23T04:05:13.798Z,6.97
2022-09-23T04:07:41.262Z,2.27
2022-09-23T04:10:09.998Z,2.70
2022-09-23T04:12:37.906Z,2.43
2022-09-23T04:15:05.393Z,4.57
2022-09-23T04:17:32.644Z,2.50
2022-09-23T04:19:59.896Z,3.47
2022-09-23T04:22:28.207Z,2.63
2022-09-23T04:24:56.232Z,3.87
2022-09-23T04:27:23.501Z,2.70
2022-09-23T04:29:51.119Z,2.90
2022-09-23T04:32:18.419Z,3.20
2022-09-23T04:34:45.980Z,3.00
2022-09-23T04:37:13.285Z,6.10
2022-09-23T04:39:40.576Z,4.33
2022-09-23T04:42:07.911Z,3.03
2022-09-23T04:44:35.211Z,2.37
2022-09-23T04:47:02.723Z,2.30
2022-09-23T04:49:33.911Z,3.07
2022-09-23T04:52:01.803Z,2.70
2022-09-23T04:54:29.278Z,3.70
2022-09-23T04:56:56.683Z,3.47
2022-09-23T04:59:24.958Z,3.07
2022-09-23T05:01:55.009Z,3.73
2022-09-23T05:04:22.917Z,2.90
2022-09-23T05:06:50.452Z,3.73
2022-09-23T05:09:18.344Z,4.67
2022-09-23T05:11:46.152Z,3.10
2022-09-23T05:14:13.695Z,6.20
2022-09-23T05:16:40.941Z,5.30
2022-09-23T05:19:08.324Z,3.50
2022-09-23T05:21:36.644Z,4.73
2022-09-23T05:24:03.898Z,3.73
2022-09-23T05:26:32.226Z,3.07
2022-09-23T05:28:59.991Z,4.50
2022-09-23T05:31:28.996Z,4.77
2022-09-23T05:34:00.365Z,4.23
2022-09-23T05:36:28.486Z,3.07
2022-09-23T05:38:58.441Z,9.60
2022-09-23T05:41:26.410Z,6.63
2022-09-23T05:43:54.174Z,4.17
2022-09-23T05:46:23.489Z,5.27
2022-09-23T05:48:51.158Z,3.60
2022-09-23T05:51:20.189Z,5.40
2022-09-23T05:53:48.546Z,3.00
2022-09-23T05:56:17.145Z,5.17
2022-09-23T05:58:44.773Z,4.57
2022-09-23T06:01:17.876Z,3.23
2022-09-23T06:03:52.769Z,3.53
2022-09-23T06:06:21.659Z,3.40
2022-09-23T06:08:49.443Z,3.40
2022-09-23T06:11:16.883Z,4.77
2022-09-23T06:13:45.811Z,3.77
2022-09-23T06:16:14.358Z,4.10
2022-09-23T06:18:42.923Z,5.60
2022-09-23T06:21:12.606Z,3.60
2022-09-23T06:23:41.790Z,5.03
2022-09-23T06:26:10.245Z,4.23
2022-09-23T06:28:38.442Z,4.07
2022-09-23T06:31:12.859Z,4.47
2022-09-23T06:33:40.985Z,6.97
2022-09-23T06:36:08.648Z,4.27
2022-09-23T06:38:36.276Z,4.17
2022-09-23T06:41:03.516Z,4.47
2022-09-23T06:43:31.408Z,4.03
2022-09-23T06:46:03.873Z,3.53
2022-09-23T06:48:34.747Z,3.80
2022-09-23T06:51:04.112Z,4.43
2022-09-23T06:53:34.983Z,3.33
2022-09-23T06:56:03.262Z,6.83
2022-09-23T06:58:32.487Z,5.97
2022-09-23T07:01:03.374Z,3.37
2022-09-23T07:03:31.765Z,4.70
2022-09-23T07:05:59.569Z,3.97
2022-09-23T07:08:27.676Z,4.23
2022-09-23T07:10:56.207Z,4.97
2022-09-23T07:13:23.783Z,3.13
2022-09-23T07:15:51.931Z,3.87
2022-09-23T07:18:20.033Z,5.53
2022-09-23T07:20:48.336Z,3.30
2022-09-23T07:23:15.644Z,3.50
2022-09-23T07:25:42.889Z,4.17
2022-09-23T07:28:10.329Z,4.10
2022-09-23T07:30:38.898Z,5.80
2022-09-23T07:33:22.518Z,4.03
2022-09-23T07:35:54.433Z,2.83
2022-09-23T07:38:30.352Z,2.60
2022-09-23T07:41:01.935Z,4.17
2022-09-23T07:43:32.292Z,3.33
2022-09-23T07:46:00.269Z,3.80
2022-09-23T07:48:31.942Z,3.03
2022-09-23T07:51:02.038Z,4.33
2022-09-23T07:53:30.421Z,4.80
2022-09-23T07:55:58.073Z,3.70
2022-09-23T07:58:25.924Z,3.63
2022-09-23T08:00:53.680Z,2.67
2022-09-23T08:03:21.386Z,3.67
2022-09-23T08:05:48.773Z,2.87
2022-09-23T08:08:17.282Z,5.73
2022-09-23T08:10:45.888Z,5.30
2022-09-23T08:13:13.132Z,2.90
2022-09-23T08:15:40.459Z,5.13
2022-09-23T08:18:07.659Z,4.53
2022-09-23T08:20:48.087Z,7.80
2022-09-23T08:23:16.690Z,5.77
2022-09-23T08:25:47.419Z,4.33
2022-09-23T08:28:17.000Z,6.60
2022-09-23T08:30:44.637Z,3.77
2022-09-23T08:33:15.391Z,3.40
2022-09-23T08:35:44.839Z,3.05
2022-09-23T08:38:12.171Z,3.25
2022-09-23T08:40:43.821Z,4.97
2022-09-23T08:43:27.220Z,4.50
2022-09-23T08:45:55.753Z,4.38
2022-09-23T08:48:30.276Z,2.92
2022-09-23T08:51:02.415Z,2.20
2022-09-23T08:53:32.191Z,3.63
2022-09-23T08:56:00.330Z,7.20
2022-09-23T08:58:48.036Z,3.60
2022-09-23T09:01:17.985Z,2.65
2022-09-23T09:03:54.064Z,4.22
2022-09-23T09:06:51.895Z,3.55
2022-09-23T09:09:25.616Z,3.00
2022-09-23T09:11:58.159Z,6.25
2022-09-23T09:14:27.540Z,3.17
2022-09-23T09:17:00.601Z,5.15
2022-09-23T09:19:32.388Z,3.28
2022-09-23T09:22:00.182Z,8.32
2022-09-23T09:24:33.913Z,4.38
2022-09-23T09:27:19.148Z,4.18
2022-09-23T09:29:50.056Z,4.30
2022-09-23T09:32:25.498Z,4.88
2022-09-23T09:34:56.443Z,5.35
2022-09-23T09:37:31.787Z,3.35
2022-09-23T09:39:59.109Z,3.10
2022-09-23T09:42:41.199Z,3.42
2022-09-23T09:45:08.600Z,5.40
2022-09-23T09:47:56.610Z,6.30
2022-09-23T09:50:46.511Z,5.68
2022-09-23T09:53:16.580Z,3.63
2022-09-23T09:55:43.772Z,8.35
2022-09-23T09:58:15.930Z,3.53
2022-09-23T10:00:45.714Z,9.40
2022-09-23T10:03:16.035Z,4.30
2022-09-23T10:05:46.799Z,6.63
2022-09-23T10:08:35.060Z,6.55
2022-09-23T10:11:03.598Z,6.70
2022-09-23T10:13:33.190Z,5.32
2022-09-23T10:16:02.433Z,8.15
2022-09-23T10:18:36.094Z,8.65
2022-09-23T10:21:17.105Z,11.63
2022-09-23T10:23:58.183Z,7.38
2022-09-23T10:26:28.130Z,5.57
2022-09-23T10:28:55.840Z,7.00
2022-09-23T10:31:25.820Z,6.07
2022-09-23T10:34:00.386Z,7.78
2022-09-23T10:36:28.694Z,10.07
2022-09-23T10:39:17.467Z,9.68
2022-09-23T10:42:09.803Z,13.75
2022-09-23T10:45:25.811Z,11.98
2022-09-23T10:48:03.150Z,11.32
2022-09-23T10:50:31.112Z,16.13
2022-09-23T10:53:01.257Z,5.95
2022-09-23T10:55:34.253Z,5.90
2022-09-23T10:58:17.516Z,6.43
2022-09-23T11:01:03.195Z,5.93
2022-09-23T11:03:54.258Z,6.18
2022-09-23T11:06:40.282Z,5.45
2022-09-23T11:09:18.540Z,7.40
2022-09-23T11:12:01.966Z,7.15
2022-09-23T11:14:40.516Z,8.38
2022-09-23T11:17:27.158Z,7.80
2022-09-23T11:20:32.822Z,5.78
2022-09-23T11:23:16.707Z,7.63
2022-09-23T11:26:06.093Z,6.38
2022-09-23T11:28:48.474Z,4.85
2022-09-23T11:31:26.392Z,5.68
2022-09-23T11:34:03.613Z,5.88
2022-09-23T11:36:30.805Z,3.80
2022-09-23T11:38:59.752Z,5.32
2022-09-23T11:41:29.389Z,7.22
2022-09-23T11:44:16.813Z,12.40
2022-09-23T11:46:49.167Z,13.70
2022-09-23T11:49:34.996Z,6.80
2022-09-23T11:52:33.117Z,7.20
2022-09-23T11:55:08.997Z,4.95
2022-09-23T11:58:23.026Z,8.40
2022-09-23T12:01:13.270Z,8.02
2022-09-23T12:04:18.082Z,9.25
2022-09-23T12:06:51.528Z,5.90
2022-09-23T12:09:57.398Z,8.32
2022-09-23T12:12:27.128Z,5.45
2022-09-23T12:15:01.558Z,6.20
2022-09-23T12:18:10.574Z,10.23
2022-09-23T12:21:45.698Z,10.27
2022-09-23T12:24:31.397Z,6.40
2022-09-23T12:27:06.138Z,6.63
2022-09-23T12:29:36.328Z,3.22
2022-09-23T12:32:09.936Z,4.80
2022-09-23T12:34:49.035Z,7.55
2022-09-23T12:37:34.294Z,5.32
2022-09-23T12:40:08.548Z,6.60
2022-09-23T12:42:44.277Z,6.20
2022-09-23T12:45:39.630Z,7.28
2022-09-23T12:48:18.233Z,5.35
2022-09-23T12:50:54.040Z,3.88
2022-09-23T12:53:36.142Z,4.18
2022-09-23T12:56:15.505Z,3.00
2022-09-23T12:58:42.311Z,5.68
2022-09-23T13:01:22.780Z,3.38
2022-09-23T13:04:14.080Z,4.38
2022-09-23T13:07:06.423Z,7.47
2022-09-23T13:09:43.065Z,3.00
2022-09-23T13:12:25.679Z,4.53
2022-09-23T13:14:55.221Z,6.10
2022-09-23T13:17:26.008Z,3.83
2022-09-23T13:20:05.795Z,4.75
2022-09-23T13:22:52.551Z,7.40
2022-09-23T13:25:24.613Z,5.35
2022-09-23T13:27:55.225Z,4.40
2022-09-23T13:30:26.615Z,10.18
2022-09-23T13:33:29.852Z,6.82
2022-09-23T13:36:01.541Z,7.25
2022-09-23T13:38:32.132Z,6.43
2022-09-23T13:40:59.375Z,14.48
2022-09-23T13:43:41.566Z,11.05
2022-09-23T13:46:17.984Z,7.25
2022-09-23T13:48:48.222Z,8.20
2022-09-23T13:51:24.565Z,6.10
2022-09-23T13:53:56.293Z,8.80
2022-09-23T13:56:25.003Z,5.18
2022-09-23T13:58:52.431Z,4.63
2022-09-23T14:01:25.490Z,5.28
2022-09-23T14:03:52.985Z,5.30
2022-09-23T14:06:20.376Z,7.50
2022-09-23T14:08:49.775Z,8.00
2022-09-23T14:11:18.123Z,5.80
2022-09-23T14:13:46.460Z,6.22
2022-09-23T14:16:17.309Z,4.88
2022-09-23T14:18:49.530Z,7.15
2022-09-23T14:21:28.971Z,5.25
2022-09-23T14:23:56.292Z,18.05
2022-09-23T14:26:24.735Z,7.38
2022-09-23T14:28:52.890Z,9.02
2022-09-23T14:31:20.261Z,5.53
2022-09-23T14:33:47.627Z,5.80
2022-09-23T14:36:35.527Z,9.10
2022-09-23T14:39:13.071Z,5.80
2022-09-23T14:41:45.332Z,8.05
2022-09-23T14:44:21.730Z,5.20
2022-09-23T14:46:56.582Z,11.05
2022-09-23T14:49:24.193Z,7.97
2022-09-23T14:51:54.656Z,7.15
2022-09-23T14:54:40.511Z,8.50
2022-09-23T14:57:19.573Z,12.68
2022-09-23T14:59:52.490Z,6.35
2022-09-23T15:02:57.703Z,4.93
2022-09-23T15:05:32.401Z,8.52
2022-09-23T15:08:02.893Z,6.65
2022-09-23T15:10:37.613Z,8.45
2022-09-23T15:13:16.352Z,4.97
2022-09-23T15:15:43.794Z,5.05
2022-09-23T15:18:38.905Z,5.65
2022-09-23T15:21:08.553Z,3.28
2022-09-23T15:23:42.405Z,2.97
2022-09-23T15:26:24.816Z,2.88
2022-09-23T15:28:54.313Z,3.33
2022-09-23T15:31:26.843Z,6.30
2022-09-23T15:33:54.100Z,6.35
2022-09-23T15:36:26.305Z,7.25
2022-09-23T15:38:54.048Z,7.10
2022-09-23T15:41:24.096Z,5.30
2022-09-23T15:43:51.560Z,5.90
2022-09-23T15:46:22.463Z,3.78
2022-09-23T15:49:07.134Z,5.80
2022-09-23T15:51:35.538Z,5.47
2022-09-23T15:54:02.406Z,5.93
2022-09-23T15:56:30.106Z,7.05
2022-09-23T15:58:56.976Z,5.45
2022-09-23T16:01:28.345Z,5.07
2022-09-23T16:03:57.323Z,4.53
2022-09-23T16:06:28.127Z,5.63
2022-09-23T16:08:55.733Z,3.95
2022-09-23T16:11:33.095Z,4.93
2022-09-23T16:14:03.565Z,3.33
2022-09-23T16:16:31.118Z,6.53
2022-09-23T16:18:58.037Z,5.63
2022-09-23T16:21:27.852Z,5.25
2022-09-23T16:23:57.277Z,5.47
2022-09-23T16:26:27.585Z,10.05
2022-09-23T16:28:56.487Z,5.55
2022-09-23T16:31:25.758Z,5.15
2022-09-23T16:33:53.680Z,3.60
2022-09-23T16:36:27.013Z,6.43
2022-09-23T16:38:58.202Z,8.40
2022-09-23T16:41:27.795Z,7.63
2022-09-23T16:43:55.643Z,6.88
2022-09-23T16:46:23.923Z,10.27
2022-09-23T16:48:53.114Z,8.52
2022-09-23T16:51:26.558Z,9.80
2022-09-23T16:53:55.391Z,11.23
2022-09-23T16:56:28.265Z,10.05
2022-09-23T16:58:56.362Z,6.68
2022-09-23T17:01:43.044Z,5.97
2022-09-23T17:04:10.740Z,8.68
2022-09-23T17:06:43.437Z,9.52
2022-09-23T17:09:11.206Z,4.65
2022-09-23T17:11:38.372Z,10.55
2022-09-23T17:14:05.918Z,7.45
2022-09-23T17:16:35.101Z,9.95
2022-09-23T17:19:10.517Z,8.88
2022-09-23T17:21:39.021Z,6.40
2022-09-23T17:24:07.983Z,11.60
2022-09-23T17:26:35.429Z,11.45
2022-09-23T17:29:02.364Z,20.60
2022-09-23T17:31:30.233Z,13.45
2022-09-23T17:33:57.578Z,10.70
2022-09-23T17:36:28.372Z,9.00
2022-09-23T17:38:55.885Z,8.27
2022-09-23T17:41:23.664Z,6.70
2022-09-23T17:43:57.121Z,6.78
2022-09-23T17:46:32.261Z,8.38
2022-09-23T17:49:00.469Z,9.77
2022-09-23T17:51:30.168Z,8.38
2022-09-23T17:53:58.228Z,10.40
2022-09-23T17:56:27.176Z,10.15
2022-09-23T17:58:54.478Z,8.82
2022-09-23T18:01:26.339Z,7.53
2022-09-23T18:03:55.147Z,10.32
2022-09-23T18:06:24.804Z,8.55
2022-09-23T18:08:52.442Z,9.88
2022-09-23T18:11:24.028Z,11.52
2022-09-23T18:14:03.176Z,10.43
2022-09-23T18:16:34.075Z,14.52
2022-09-23T18:19:02.737Z,18.45
2022-09-23T18:21:38.523Z,14.35
2022-09-23T18:24:28.577Z,14.65
2022-09-23T18:26:54.033Z,15.50
2022-09-23T18:29:23.274Z,9.85
2022-09-23T18:31:54.919Z,13.05
2022-09-23T18:34:23.241Z,10.02
2022-09-23T18:36:50.427Z,10.35
2022-09-23T18:39:17.439Z,8.65
2022-09-23T18:41:44.430Z,11.60
2022-09-23T18:44:11.495Z,8.05
2022-09-23T18:46:38.706Z,12.38
2022-09-23T18:49:24.322Z,9.23
2022-09-23T18:51:55.183Z,11.15
2022-09-23T18:54:27.756Z,11.80
2022-09-23T18:56:55.287Z,8.70
2022-09-23T18:59:25.981Z,7.80
2022-09-23T19:01:55.777Z,16.58
2022-09-23T19:04:24.559Z,14.15
2022-09-23T19:06:51.742Z,12.40
2022-09-23T19:09:18.928Z,14.80
2022-09-23T19:11:52.214Z,9.93
2022-09-23T19:14:19.649Z,9.02
2022-09-23T19:16:49.199Z,9.80
2022-09-23T19:19:16.474Z,7.57
2022-09-23T19:21:43.474Z,11.68
2022-09-23T19:24:16.062Z,7.65
2022-09-23T19:26:43.755Z,8.55
2022-09-23T19:29:15.912Z,7.05
2022-09-23T19:31:43.845Z,11.20
2022-09-23T19:34:16.516Z,16.65
2022-09-23T19:36:49.634Z,10.50
2022-09-23T19:39:18.251Z,9.98
2022-09-23T19:41:48.697Z,9.95
2022-09-23T19:44:16.741Z,11.85
2022-09-23T19:46:51.925Z,9.07
2022-09-23T19:49:24.010Z,7.38
2022-09-23T19:51:51.116Z,7.43
2022-09-23T19:54:20.956Z,12.55
2022-09-23T19:56:51.172Z,10.02
2022-09-23T19:59:19.304Z,6.97
2022-09-23T20:01:47.696Z,10.38
2022-09-23T20:04:16.017Z,7.30
2022-09-23T20:06:43.607Z,9.52
2022-09-23T20:09:10.797Z,13.77
2022-09-23T20:11:38.163Z,8.32
2022-09-23T20:14:07.377Z,7.63
2022-09-23T20:16:37.120Z,9.55
2022-09-23T20:19:05.567Z,13.02
2022-09-23T20:21:38.122Z,14.23
2022-09-23T20:24:06.631Z,10.52
2022-09-23T20:27:06.146Z,11.70
2022-09-23T20:29:32.982Z,8.55
2022-09-23T20:32:00.092Z,6.15
2022-09-23T20:34:34.670Z,8.55
2022-09-23T20:37:01.666Z,9.32
2022-09-23T20:39:28.473Z,9.93
2022-09-23T20:41:55.833Z,8.30
2022-09-23T20:44:22.783Z,14.43
2022-09-23T20:46:49.982Z,13.80
2022-09-23T20:49:18.026Z,12.07
2022-09-23T20:51:47.576Z,13.25
2022-09-23T20:54:15.830Z,9.55
2022-09-23T20:56:43.195Z,11.35
2022-09-23T20:59:11.710Z,8.82
2022-09-23T21:01:38.728Z,7.10
2022-09-23T21:04:06.149Z,8.32
2022-09-23T21:06:35.432Z,5.95
2022-09-23T21:09:02.994Z,8.48
2022-09-23T21:11:31.182Z,8.35
2022-09-23T21:14:00.429Z,8.02
2022-09-23T21:16:27.985Z,9.40
2022-09-23T21:18:54.862Z,7.20
2022-09-23T21:21:22.415Z,7.78
2022-09-23T21:23:51.198Z,6.72
2022-09-23T21:26:21.110Z,7.68
2022-09-23T21:28:51.127Z,9.65
2022-09-23T21:31:23.834Z,8.95
2022-09-23T21:34:02.699Z,6.70
2022-09-23T21:36:32.140Z,11.80
2022-09-23T21:39:01.845Z,11.33
2022-09-23T21:41:29.212Z,11.63
2022-09-23T21:43:56.487Z,8.20
2022-09-23T21:46:24.090Z,13.88
2022-09-23T21:48:53.723Z,9.40
2022-09-23T21:51:23.246Z,9.02
2022-09-23T21:53:50.312Z,7.18
2022-09-23T21:56:21.193Z,6.55
2022-09-23T21:58:50.087Z,7.30
2022-09-23T22:01:22.790Z,7.25
2022-09-23T22:03:58.994Z,10.02
2022-09-23T22:06:30.661Z,12.77
2022-09-23T22:08:59.913Z,8.70
2022-09-23T22:11:46.816Z,8.52
2022-09-23T22:14:17.862Z,15.23
2022-09-23T22:16:45.934Z,8.35
2022-09-23T22:19:18.181Z,8.20
2022-09-23T22:21:47.312Z,10.07
2022-09-23T22:24:14.793Z,7.93
2022-09-23T22:26:48.274Z,7.90
2022-09-23T22:29:36.931Z,8.60
2022-09-23T22:32:24.442Z,13.10
2022-09-23T22:34:52.708Z,19.27
2022-09-23T22:37:35.986Z,13.13
2022-09-23T22:40:05.705Z,16.75
2022-09-23T22:42:33.285Z,16.95
2022-09-23T22:45:00.144Z,15.98
2022-09-23T22:47:27.212Z,15.03
2022-09-23T22:49:55.487Z,14.13
2022-09-23T22:52:24.730Z,13.25
2022-09-23T22:54:52.763Z,13.05
2022-09-23T22:57:19.846Z,13.93
2022-09-23T22:59:48.444Z,13.60
2022-09-23T23:02:18.411Z,13.73
2022-09-23T23:04:47.882Z,14.45
2022-09-23T23:07:16.650Z,14.37
2022-09-23T23:09:43.452Z,14.00
2022-09-23T23:12:10.262Z,15.30
2022-09-23T23:14:38.103Z,17.58
2022-09-23T23:17:07.562Z,17.08
2022-09-23T23:19:36.389Z,15.98
2022-09-23T23:22:04.470Z,20.08
2022-09-23T23:24:31.345Z,17.05
2022-09-23T23:26:58.415Z,18.27
2022-09-23T23:29:25.208Z,19.80
2022-09-23T23:31:52.552Z,25.10
2022-09-23T23:34:20.983Z,18.85
2022-09-23T23:36:54.461Z,19.53
2022-09-23T23:39:25.652Z,17.77
2022-09-23T23:41:54.926Z,19.87
2022-09-23T23:44:23.829Z,23.77
2022-09-23T23:46:51.174Z,19.67
2022-09-23T23:49:18.117Z,18.10
2022-09-23T23:51:44.889Z,18.75
2022-09-23T23:54:12.433Z,25.23
2022-09-23T23:56:39.251Z,21.75
2022-09-23T23:59:06.138Z,19.33
